WELCOME TO Fly Ecuador Virtual

Fly Ecuador Virtual es una organización creada con el fin de brindar una plataforma que permita a los pilotos virtuales, principalmente ecuatorianos, tener un lugar donde registrar sus horas de vuelo, sus certificados de conocimiento adquiridos, las rutas que han volado y los destinos que han visitado. Así mismo, se busca ayudar a todos los pilotos a expandir su conocimiento sobre el mundo de la aviación real y virtual por medio de publicaciones, foros y cursos en línea.
A diferencia de las aerolíneas virtuales tradicionales, Fly Ecuador Virtual no simula las operaciones de una aerolínea del mundo real en específico. Un miembro de Fly Ecuador Virtual tiene toda la libertad de volar cualquier aeronave que opere en el espacio aéreo ecuatoriano real, en cualquier ruta, sea esta nacional o internacional, IFR o VFR, aeronaves monomotor, multimotor o helicópteros. Todo esto con el objetivo de expandir las operaciones virtuales dentro del espacio aéreo ecuatoriano, creando una comunidad en la que se compartan conocimientos y experiencias que beneficien a todos sus integrantes.
El crecimiento de Fly Ecuador Virtual depende de la participación conjunta de todos sus miembros, por este motivo se incentiva la participación en línea a través de los diferentes medios descritos más adelante en este sitio web.

STATISTICS

Pilots 61
Total hours: 4320.27
Flights total 1447

LATEST FLIGHTS

CallsignPilotDepartureArrivalDateFlight Time
ECU014Rodolfo Estrella C.SKPSSEQM26-07-20170.62
ECU014Rodolfo Estrella C.SEQMSKPS25-07-20170.84
ECU018Luis HerediaSETNSEQM25-07-20170.36
ECU014Rodolfo Estrella C.SECUSEQM25-07-20170.80
ECU014Rodolfo Estrella C.SEGUSECU25-07-20170.54

NEWEST PILOTS

PilotJoined
ECU079-Vicente Torres13-07-2017
ECU077-Fernando Flores Valarezo06-07-2017
ECU078-Ricardo Guzman05-07-2017
ECU075-FREDDY RIVERA29-06-2017
ECU074-Emilio Mayhua28-06-2017

FUTURE EVENTS & METARS

EventDate
METAR
SEGU - José Joaquín de Olmedo International Airport, Guayaquil, ECU
Distance from station: N 0mi, 0km
Updated: Wed, 26-Jul-2017 1:00pm PDT
Partly Cloudy
Partly Cloudy
 Wind from SE
Wind: SE 5 mph , 7 km/h
Temperature: 82°F , 28°C
Heat Index: 86°F , 30°C
Dew Point: 70°F , 21°C
Humidity: 66%
Barometer: 29.8 inHg , 1009 hPa
Clouds: Partly Cloudy
Visibility: 6 miles , 10 km
Cloud details: Few Clouds 3000 ft
Partly Cloudy 10000 ft
2017/07/26 20:00 SEGU 262000Z 13004KT 070V160 9999 FEW030 SCT100 28/21 Q1009 NOSIG RMK A2979
 
SEQM - Aeropuerto Internacional Mariscal Sucre, ECU
Distance from station: NE 120mi, 200km
Updated: Wed, 26-Jul-2017 1:00pm PDT
Partly Cloudy
Partly Cloudy
 Wind from SE
Wind: SE 10 mph , 17 km/h
Temperature: 72°F , 22°C
Dew Point: 43°F , 6°C
Humidity: 36%
Barometer: 30.18 inHg , 1022 hPa
Clouds: Partly Cloudy
Visibility: 6 miles , 10 km
Cloud details: Partly Cloudy 3000 ft
2017/07/26 20:00 SEQM 262000Z 13009KT 9999 SCT030 22/06 Q1022 NOSIG RMK A3019
 
SECU - Mariscal Lamar Airpor, ECU
Distance from station: ENE 80mi, 120km
Updated: Wed, 26-Jul-2017 1:00pm PDT
Nearby showers, Mostly cloudy
Nearby showers, Mostly cloudy
 Wind from ENE
Wind: ENE 15 mph , 24 km/h
Temperature: 59°F , 15°C
Dew Point: 52°F , 11°C
Humidity: 77%
Barometer: 30.24 inHg , 1024 hPa
Summary: Nearby Showers
Clouds: Mostly Cloudy
Visibility: 6 miles , 10 km
Cloud details: Mostly Cloudy 3300 ft
2017/07/26 20:00 SECU 262000Z 06013KT 9999 VCSH BKN033 15/11 Q1024
 
SELT - Cotopaxi International Airport, ECU
Distance from station: NW 21mi, 34km
Updated: Wed, 26-Jul-2017 1:00pm PDT
Nearby showers, Mostly cloudy
Nearby showers, Mostly cloudy
 Wind from S
Wind: S 20 mph , 31 km/h
Temperature: 57°F , 14°C
Dew Point: 48°F , 9°C
Humidity: 72%
Barometer: 30.39 inHg , 1029 hPa
Summary: Nearby Showers
Clouds: Mostly Cloudy
Visibility: 6 miles , 10 km
Cloud details: Partly Cloudy 2000 ft
Mostly Cloudy 3000 ft
2017/07/26 20:00 SELT 262000Z 18017KT 9999 VCSH SCT020 BKN030 14/09 Q1029
 
SEMT - Eloy Alfaro International Airport, ECU
Distance from station: SSE 70mi, 100km
Updated: Wed, 26-Jul-2017 1:00pm PDT
Overcast
Overcast
 Wind from WNW
Wind: WNW 10 mph , 17 km/h
Temperature: 77°F , 25°C
Dew Point: 72°F , 22°C
Humidity: 83%
Barometer: 29.83 inHg , 1010 hPa
Clouds: Overcast
Visibility: 6 miles , 10 km
Cloud details: Overcast 2000 ft
2017/07/26 20:00 SEMT 262000Z 29009KT 9999 OVC020 25/22 Q1010 RMK A2983

Metar display script from Saratoga-Weather.org

TWEETS

NOTAMS

NOTAMDate